sensor_id;sensor_type;location;lat;lon;timestamp;pressure;altitude;pressure_sealevel;temperature;humidity
57102;BME280;42982;54.558;18.508;2023-11-21T00:01:02;100448.56;;;22.13;41.31
57102;BME280;42982;54.558;18.508;2023-11-21T00:02:05;100448.19;;;22.15;41.37
57102;BME280;42982;54.558;18.508;2023-11-21T00:03:09;100452.09;;;22.14;41.38
57102;BME280;42982;54.558;18.508;2023-11-21T00:04:11;100451.28;;;22.13;41.39
57102;BME280;42982;54.558;18.508;2023-11-21T00:05:13;100455.59;;;22.14;41.30
57102;BME280;42982;54.558;18.508;2023-11-21T00:06:15;100459.13;;;22.15;41.31
57102;BME280;42982;54.558;18.508;2023-11-21T00:07:16;100450.13;;;22.14;41.38
57102;BME280;42982;54.558;18.508;2023-11-21T00:08:18;100449.34;;;22.14;41.22
57102;BME280;42982;54.558;18.508;2023-11-21T00:09:19;100444.66;;;22.14;41.34
57102;BME280;42982;54.558;18.508;2023-11-21T00:10:21;100454.81;;;22.14;41.31
57102;BME280;42982;54.558;18.508;2023-11-21T00:11:23;100449.34;;;22.14;41.17
57102;BME280;42982;54.558;18.508;2023-11-21T00:12:26;100456.41;;;22.15;41.38
57102;BME280;42982;54.558;18.508;2023-11-21T00:13:30;100459.50;;;22.13;41.30
57102;BME280;42982;54.558;18.508;2023-11-21T00:14:31;100461.09;;;22.14;41.46
57102;BME280;42982;54.558;18.508;2023-11-21T00:15:34;100465.78;;;22.14;41.39
57102;BME280;42982;54.558;18.508;2023-11-21T00:16:35;100464.59;;;22.15;41.40
57102;BME280;42982;54.558;18.508;2023-11-21T00:17:43;100460.28;;;22.14;41.43
57102;BME280;42982;54.558;18.508;2023-11-21T00:18:44;100459.91;;;22.15;41.28
57102;BME280;42982;54.558;18.508;2023-11-21T00:19:50;100454.81;;;22.14;41.32
57102;BME280;42982;54.558;18.508;2023-11-21T00:20:55;100454.81;;;22.14;41.29
57102;BME280;42982;54.558;18.508;2023-11-21T00:22:02;100459.13;;;22.15;41.36
57102;BME280;42982;54.558;18.508;2023-11-21T00:23:04;100454.03;;;22.13;41.43
57102;BME280;42982;54.558;18.508;2023-11-21T00:24:09;100446.88;;;22.09;41.44
57102;BME280;42982;54.558;18.508;2023-11-21T00:25:13;100464.59;;;22.15;41.33
57102;BME280;42982;54.558;18.508;2023-11-21T00:26:16;100461.88;;;22.15;41.38
57102;BME280;42982;54.558;18.508;2023-11-21T00:27:22;100472.81;;;22.15;41.37
57102;BME280;42982;54.558;18.508;2023-11-21T00:28:24;100473.63;;;22.15;41.39
57102;BME280;42982;54.558;18.508;2023-11-21T00:29:27;100472.81;;;22.15;41.40
57102;BME280;42982;54.558;18.508;2023-11-21T00:30:28;100468.50;;;22.14;41.31
57102;BME280;42982;54.558;18.508;2023-11-21T00:31:30;100480.25;;;22.14;41.34
57102;BME280;42982;54.558;18.508;2023-11-21T00:32:32;100470.09;;;22.15;41.40
57102;BME280;42982;54.558;18.508;2023-11-21T00:33:33;100468.13;;;22.15;41.38
57102;BME280;42982;54.558;18.508;2023-11-21T00:34:37;100475.56;;;22.15;41.36
57102;BME280;42982;54.558;18.508;2023-11-21T00:35:39;100468.13;;;22.15;41.34
57102;BME280;42982;54.558;18.508;2023-11-21T00:36:40;100472.03;;;22.14;41.22
57102;BME280;42982;54.558;18.508;2023-11-21T00:37:43;100474.44;;;22.16;41.39
57102;BME280;42982;54.558;18.508;2023-11-21T00:38:44;100479.47;;;22.14;41.33
57102;BME280;42982;54.558;18.508;2023-11-21T00:39:46;100478.31;;;22.15;41.24
57102;BME280;42982;54.558;18.508;2023-11-21T00:40:47;100471.25;;;22.14;41.40
57102;BME280;42982;54.558;18.508;2023-11-21T00:41:49;100476.72;;;22.14;41.34
57102;BME280;42982;54.558;18.508;2023-11-21T00:42:53;100475.13;;;22.13;41.44
57102;BME280;42982;54.558;18.508;2023-11-21T00:43:56;100475.13;;;22.13;41.39
57102;BME280;42982;54.558;18.508;2023-11-21T00:44:59;100475.94;;;22.13;41.37
57102;BME280;42982;54.558;18.508;2023-11-21T00:46:04;100479.00;;;22.12;41.25
57102;BME280;42982;54.558;18.508;2023-11-21T00:47:08;100475.13;;;22.13;41.42
57102;BME280;42982;54.558;18.508;2023-11-21T00:48:10;100477.84;;;22.13;41.38
57102;BME280;42982;54.558;18.508;2023-11-21T00:49:13;100477.06;;;22.12;41.38
57102;BME280;42982;54.558;18.508;2023-11-21T00:50:15;100477.06;;;22.12;41.48
57102;BME280;42982;54.558;18.508;2023-11-21T00:51:16;100478.66;;;22.13;41.42
57102;BME280;42982;54.558;18.508;2023-11-21T00:52:18;100479.81;;;22.12;41.55
57102;BME280;42982;54.558;18.508;2023-11-21T00:53:21;100488.03;;;22.12;41.52
57102;BME280;42982;54.558;18.508;2023-11-21T00:54:22;100477.84;;;22.13;41.46
57102;BME280;42982;54.558;18.508;2023-11-21T00:55:25;100473.53;;;22.12;41.41
57102;BME280;42982;54.558;18.508;2023-11-21T00:56:29;100483.34;;;22.13;41.29
57102;BME280;42982;54.558;18.508;2023-11-21T00:57:33;100484.50;;;22.12;41.49
57102;BME280;42982;54.558;18.508;2023-11-21T00:58:35;100489.97;;;22.12;41.26
57102;BME280;42982;54.558;18.508;2023-11-21T00:59:37;100479.00;;;22.12;41.34
57102;BME280;42982;54.558;18.508;2023-11-21T01:00:38;100482.91;;;22.11;41.28
57102;BME280;42982;54.558;18.508;2023-11-21T01:01:40;100482.91;;;22.11;41.38
57102;BME280;42982;54.558;18.508;2023-11-21T01:02:43;100484.03;;;22.10;41.26
57102;BME280;42982;54.558;18.508;2023-11-21T01:03:48;100484.88;;;22.10;41.27
57102;BME280;42982;54.558;18.508;2023-11-21T01:04:50;100481.31;;;22.10;41.33
57102;BME280;42982;54.558;18.508;2023-11-21T01:05:53;100492.25;;;22.10;41.26
57102;BME280;42982;54.558;18.508;2023-11-21T01:06:55;100499.69;;;22.09;41.25
57102;BME280;42982;54.558;18.508;2023-11-21T01:07:57;100488.72;;;22.09;41.33
57102;BME280;42982;54.558;18.508;2023-11-21T01:08:59;100490.69;;;22.09;41.37
57102;BME280;42982;54.558;18.508;2023-11-21T01:10:00;100486.38;;;22.08;41.29
57102;BME280;42982;54.558;18.508;2023-11-21T01:11:02;100487.94;;;22.09;41.33
57102;BME280;42982;54.558;18.508;2023-11-21T01:12:05;100496.16;;;22.09;41.30
57102;BME280;42982;54.558;18.508;2023-11-21T01:13:11;100490.69;;;22.09;41.34
57102;BME280;42982;54.558;18.508;2023-11-21T01:14:13;100497.31;;;22.08;41.34
57102;BME280;42982;54.558;18.508;2023-11-21T01:15:15;100496.16;;;22.09;41.34
57102;BME280;42982;54.558;18.508;2023-11-21T01:16:17;100496.16;;;22.09;41.44
57102;BME280;42982;54.558;18.508;2023-11-21T01:17:18;100491.06;;;22.07;41.32
57102;BME280;42982;54.558;18.508;2023-11-21T01:18:22;100487.50;;;22.07;41.24
57102;BME280;42982;54.558;18.508;2023-11-21T01:19:27;100495.72;;;22.07;41.22
57102;BME280;42982;54.558;18.508;2023-11-21T01:20:30;100500.06;;;22.08;41.20
57102;BME280;42982;54.558;18.508;2023-11-21T01:21:32;100494.59;;;22.08;41.33
57102;BME280;42982;54.558;18.508;2023-11-21T01:22:34;100498.44;;;22.07;41.30
57102;BME280;42982;54.558;18.508;2023-11-21T01:23:39;100504.75;;;22.07;41.42
57102;BME280;42982;54.558;18.508;2023-11-21T01:24:41;100500.06;;;22.08;41.29
57102;BME280;42982;54.558;18.508;2023-11-21T01:25:43;100502.00;;;22.07;41.24
57102;BME280;42982;54.558;18.508;2023-11-21T01:26:45;100504.75;;;22.07;41.26
57102;BME280;42982;54.558;18.508;2023-11-21T01:27:47;100509.06;;;22.08;41.22
57102;BME280;42982;54.558;18.508;2023-11-21T01:28:49;100497.31;;;22.08;41.45
57102;BME280;42982;54.558;18.508;2023-11-21T01:29:50;100503.94;;;22.07;41.39
57102;BME280;42982;54.558;18.508;2023-11-21T01:30:57;100510.22;;;22.07;41.55
57102;BME280;42982;54.558;18.508;2023-11-21T01:31:58;100513.75;;;22.08;41.42
57102;BME280;42982;54.558;18.508;2023-11-21T01:33:00;100507.47;;;22.07;41.47
57102;BME280;42982;54.558;18.508;2023-11-21T01:34:01;100510.22;;;22.07;41.36
57102;BME280;42982;54.558;18.508;2023-11-21T01:35:03;100511.00;;;22.08;41.41
57102;BME280;42982;54.558;18.508;2023-11-21T01:36:11;100507.13;;;22.09;41.51
57102;BME280;42982;54.558;18.508;2023-11-21T01:37:13;100519.22;;;22.08;41.50
57102;BME280;42982;54.558;18.508;2023-11-21T01:38:14;100518.06;;;22.09;41.51
57102;BME280;42982;54.558;18.508;2023-11-21T01:39:18;100509.84;;;22.09;41.37
57102;BME280;42982;54.558;18.508;2023-11-21T01:40:28;100516.50;;;22.08;41.29
57102;BME280;42982;54.558;18.508;2023-11-21T01:41:32;100515.31;;;22.09;41.34
57102;BME280;42982;54.558;18.508;2023-11-21T01:42:33;100519.22;;;22.08;41.38
57102;BME280;42982;54.558;18.508;2023-11-21T01:43:36;100521.97;;;22.08;41.53
57102;BME280;42982;54.558;18.508;2023-11-21T01:44:41;100516.50;;;22.08;41.35
57102;BME280;42982;54.558;18.508;2023-11-21T01:45:42;100523.91;;;22.07;41.34
57102;BME280;42982;54.558;18.508;2023-11-21T01:46:45;100521.97;;;22.08;41.29
57102;BME280;42982;54.558;18.508;2023-11-21T01:47:50;100532.91;;;22.08;41.36
57102;BME280;42982;54.558;18.508;2023-11-21T01:48:54;100528.56;;;22.07;41.25
57102;BME280;42982;54.558;18.508;2023-11-21T01:49:56;100534.03;;;22.07;41.42
57102;BME280;42982;54.558;18.508;2023-11-21T01:51:05;100534.03;;;22.07;41.37
57102;BME280;42982;54.558;18.508;2023-11-21T01:52:07;100527.00;;;22.06;41.36
57102;BME280;42982;54.558;18.508;2023-11-21T01:53:12;100522.31;;;22.06;41.38
57102;BME280;42982;54.558;18.508;2023-11-21T01:54:14;100520.72;;;22.05;41.31
57102;BME280;42982;54.558;18.508;2023-11-21T01:55:17;100527.78;;;22.06;41.27
57102;BME280;42982;54.558;18.508;2023-11-21T01:56:21;100532.13;;;22.07;41.45
57102;BME280;42982;54.558;18.508;2023-11-21T01:57:26;100525.84;;;22.07;41.42
57102;BME280;42982;54.558;18.508;2023-11-21T01:58:28;100535.22;;;22.06;41.29
57102;BME280;42982;54.558;18.508;2023-11-21T01:59:34;100530.53;;;22.06;41.35
57102;BME280;42982;54.558;18.508;2023-11-21T02:00:37;100539.91;;;22.05;41.22
57102;BME280;42982;54.558;18.508;2023-11-21T02:01:41;100537.94;;;22.06;41.19
57102;BME280;42982;54.558;18.508;2023-11-21T02:02:43;100539.09;;;22.05;41.42
57102;BME280;42982;54.558;18.508;2023-11-21T02:03:45;100531.31;;;22.07;41.40
57102;BME280;42982;54.558;18.508;2023-11-21T02:04:47;100533.25;;;22.06;41.45
57102;BME280;42982;54.558;18.508;2023-11-21T02:05:49;100536.00;;;22.06;41.38
57102;BME280;42982;54.558;18.508;2023-11-21T02:06:51;100540.69;;;22.06;41.42
57102;BME280;42982;54.558;18.508;2023-11-21T02:07:56;100540.69;;;22.06;41.46
57102;BME280;42982;54.558;18.508;2023-11-21T02:09:00;100536.78;;;22.07;41.33
57102;BME280;42982;54.558;18.508;2023-11-21T02:10:01;100534.41;;;22.05;41.40
57102;BME280;42982;54.558;18.508;2023-11-21T02:11:03;100539.91;;;22.05;41.24
57102;BME280;42982;54.558;18.508;2023-11-21T02:12:04;100546.16;;;22.06;41.40
57102;BME280;42982;54.558;18.508;2023-11-21T02:13:07;100544.22;;;22.06;41.25
57102;BME280;42982;54.558;18.508;2023-11-21T02:14:08;100544.22;;;22.06;41.30
57102;BME280;42982;54.558;18.508;2023-11-21T02:15:13;100540.69;;;22.06;41.35
57102;BME280;42982;54.558;18.508;2023-11-21T02:16:27;100537.94;;;22.06;41.33
57102;BME280;42982;54.558;18.508;2023-11-21T02:17:33;100536.00;;;22.06;41.39
57102;BME280;42982;54.558;18.508;2023-11-21T02:18:34;100537.53;;;22.04;41.42
57102;BME280;42982;54.558;18.508;2023-11-21T02:19:39;100541.47;;;22.06;41.37
57102;BME280;42982;54.558;18.508;2023-11-21T02:20:40;100539.53;;;22.07;41.39
57102;BME280;42982;54.558;18.508;2023-11-21T02:21:43;100547.75;;;22.07;41.20
57102;BME280;42982;54.558;18.508;2023-11-21T02:22:56;100547.75;;;22.07;41.21
57102;BME280;42982;54.558;18.508;2023-11-21T02:24:00;100546.94;;;22.06;41.27
57102;BME280;42982;54.558;18.508;2023-11-21T02:25:04;100548.91;;;22.06;41.31
57102;BME280;42982;54.558;18.508;2023-11-21T02:26:08;100546.94;;;22.06;41.16
57102;BME280;42982;54.558;18.508;2023-11-21T02:27:10;100554.38;;;22.06;41.09
57102;BME280;42982;54.558;18.508;2023-11-21T02:28:15;100553.59;;;22.05;41.21
57102;BME280;42982;54.558;18.508;2023-11-21T02:29:27;100550.84;;;22.05;41.17
57102;BME280;42982;54.558;18.508;2023-11-21T02:30:29;100553.94;;;22.04;41.16
57102;BME280;42982;54.558;18.508;2023-11-21T02:31:35;100550.06;;;22.05;41.13
57102;BME280;42982;54.558;18.508;2023-11-21T02:32:38;100557.09;;;22.06;41.13
57102;BME280;42982;54.558;18.508;2023-11-21T02:33:42;100559.44;;;22.04;41.18
57102;BME280;42982;54.558;18.508;2023-11-21T02:34:47;100560.22;;;22.04;41.24
57102;BME280;42982;54.558;18.508;2023-11-21T02:35:49;100563.75;;;22.05;41.23
57102;BME280;42982;54.558;18.508;2023-11-21T02:36:52;100560.22;;;22.04;41.34
57102;BME280;42982;54.558;18.508;2023-11-21T02:37:54;100567.28;;;22.05;41.25
57102;BME280;42982;54.558;18.508;2023-11-21T02:38:56;100566.47;;;22.05;41.22
57102;BME280;42982;54.558;18.508;2023-11-21T02:40:01;100563.75;;;22.05;41.33
57102;BME280;42982;54.558;18.508;2023-11-21T02:41:05;100571.97;;;22.05;41.42
57102;BME280;42982;54.558;18.508;2023-11-21T02:42:13;100573.53;;;22.06;41.54
57102;BME280;42982;54.558;18.508;2023-11-21T02:43:15;100571.97;;;22.05;41.46
57102;BME280;42982;54.558;18.508;2023-11-21T02:44:16;100569.22;;;22.05;41.40
57102;BME280;42982;54.558;18.508;2023-11-21T02:45:19;100570.00;;;22.05;41.47
57102;BME280;42982;54.558;18.508;2023-11-21T02:46:21;100570.81;;;22.06;41.56
57102;BME280;42982;54.558;18.508;2023-11-21T02:47:23;100568.06;;;22.06;41.48
57102;BME280;42982;54.558;18.508;2023-11-21T02:48:25;100573.53;;;22.06;41.48
57102;BME280;42982;54.558;18.508;2023-11-21T02:49:27;100571.59;;;22.06;41.62
57102;BME280;42982;54.558;18.508;2023-11-21T02:50:29;100575.13;;;22.07;41.58
57102;BME280;42982;54.558;18.508;2023-11-21T02:51:30;100569.63;;;22.07;41.66
57102;BME280;42982;54.558;18.508;2023-11-21T02:52:32;100577.84;;;22.07;41.58
57102;BME280;42982;54.558;18.508;2023-11-21T02:53:34;100571.25;;;22.08;41.49
57102;BME280;42982;54.558;18.508;2023-11-21T02:54:36;100581.03;;;22.09;41.65
57102;BME280;42982;54.558;18.508;2023-11-21T02:55:41;100572.81;;;22.09;41.53
57102;BME280;42982;54.558;18.508;2023-11-21T02:56:42;100576.72;;;22.08;41.46
57102;BME280;42982;54.558;18.508;2023-11-21T02:57:44;100577.50;;;22.08;41.59
57102;BME280;42982;54.558;18.508;2023-11-21T02:58:45;100579.47;;;22.08;41.61
57102;BME280;42982;54.558;18.508;2023-11-21T02:59:47;100581.03;;;22.09;41.55
57102;BME280;42982;54.558;18.508;2023-11-21T03:00:48;100578.31;;;22.09;41.58
57102;BME280;42982;54.558;18.508;2023-11-21T03:01:50;100581.03;;;22.09;41.70
57102;BME280;42982;54.558;18.508;2023-11-21T03:02:53;100583.78;;;22.09;41.54
57102;BME280;42982;54.558;18.508;2023-11-21T03:03:54;100584.50;;;22.06;41.56
57102;BME280;42982;54.558;18.508;2023-11-21T03:04:56;100583.00;;;22.08;41.57
57102;BME280;42982;54.558;18.508;2023-11-21T03:05:59;100583.00;;;22.08;41.65
57102;BME280;42982;54.558;18.508;2023-11-21T03:07:01;100582.63;;;22.10;41.61
57102;BME280;42982;54.558;18.508;2023-11-21T03:08:02;100588.09;;;22.10;41.60
57102;BME280;42982;54.558;18.508;2023-11-21T03:09:04;100585.34;;;22.10;41.67
57102;BME280;42982;54.558;18.508;2023-11-21T03:10:15;100582.63;;;22.10;41.58
57102;BME280;42982;54.558;18.508;2023-11-21T03:11:19;100574.41;;;22.10;41.60
57102;BME280;42982;54.558;18.508;2023-11-21T03:12:20;100584.22;;;22.11;41.57
57102;BME280;42982;54.558;18.508;2023-11-21T03:13:22;100586.97;;;22.11;41.63
57102;BME280;42982;54.558;18.508;2023-11-21T03:14:26;100588.91;;;22.10;41.50
57102;BME280;42982;54.558;18.508;2023-11-21T03:15:28;100586.97;;;22.11;41.69
57102;BME280;42982;54.558;18.508;2023-11-21T03:16:30;100584.22;;;22.11;41.71
57102;BME280;42982;54.558;18.508;2023-11-21T03:17:31;100581.03;;;22.09;41.68
57102;BME280;42982;54.558;18.508;2023-11-21T03:18:34;100595.19;;;22.11;41.71
57102;BME280;42982;54.558;18.508;2023-11-21T03:19:36;100586.97;;;22.11;41.48
57102;BME280;42982;54.558;18.508;2023-11-21T03:20:37;100597.91;;;22.11;41.66
57102;BME280;42982;54.558;18.508;2023-11-21T03:21:39;100593.56;;;22.10;41.59
57102;BME280;42982;54.558;18.508;2023-11-21T03:22:40;100590.84;;;22.10;41.51
57102;BME280;42982;54.558;18.508;2023-11-21T03:23:44;100600.66;;;22.11;41.65
57102;BME280;42982;54.558;18.508;2023-11-21T03:24:45;100600.22;;;22.09;41.55
57102;BME280;42982;54.558;18.508;2023-11-21T03:25:47;100597.91;;;22.11;41.69
57102;BME280;42982;54.558;18.508;2023-11-21T03:26:49;100595.19;;;22.11;41.61
57102;BME280;42982;54.558;18.508;2023-11-21T03:27:53;100599.88;;;22.10;41.72
57102;BME280;42982;54.558;18.508;2023-11-21T03:28:55;100594.41;;;22.10;41.57
57102;BME280;42982;54.558;18.508;2023-11-21T03:29:59;100592.44;;;22.11;41.60
57102;BME280;42982;54.558;18.508;2023-11-21T03:31:04;100593.56;;;22.10;41.62
57102;BME280;42982;54.558;18.508;2023-11-21T03:32:12;100590.03;;;22.09;41.59
57102;BME280;42982;54.558;18.508;2023-11-21T03:33:14;100592.44;;;22.11;41.53
57102;BME280;42982;54.558;18.508;2023-11-21T03:34:26;100600.66;;;22.11;41.71
57102;BME280;42982;54.558;18.508;2023-11-21T03:35:44;100597.91;;;22.11;41.53
57102;BME280;42982;54.558;18.508;2023-11-21T03:36:50;100592.44;;;22.11;41.55
57102;BME280;42982;54.558;18.508;2023-11-21T03:37:53;100589.72;;;22.11;41.67
57102;BME280;42982;54.558;18.508;2023-11-21T03:38:58;100592.44;;;22.11;41.63
57102;BME280;42982;54.558;18.508;2023-11-21T03:40:04;100597.91;;;22.11;41.58
57102;BME280;42982;54.558;18.508;2023-11-21T03:41:09;100595.97;;;22.11;41.72
57102;BME280;42982;54.558;18.508;2023-11-21T03:42:11;100600.66;;;22.11;41.61
57102;BME280;42982;54.558;18.508;2023-11-21T03:43:13;100607.72;;;22.12;41.65
57102;BME280;42982;54.558;18.508;2023-11-21T03:44:14;100612.41;;;22.11;41.73
57102;BME280;42982;54.558;18.508;2023-11-21T03:45:15;100604.97;;;22.12;41.65
57102;BME280;42982;54.558;18.508;2023-11-21T03:46:17;100597.13;;;22.10;41.71
57102;BME280;42982;54.558;18.508;2023-11-21T03:47:19;100599.88;;;22.10;41.59
57102;BME280;42982;54.558;18.508;2023-11-21T03:48:22;100603.41;;;22.11;41.63
57102;BME280;42982;54.558;18.508;2023-11-21T03:49:24;100598.72;;;22.11;41.56
57102;BME280;42982;54.558;18.508;2023-11-21T03:50:25;100599.50;;;22.12;41.58
57102;BME280;42982;54.558;18.508;2023-11-21T03:51:27;100603.41;;;22.11;41.69
57102;BME280;42982;54.558;18.508;2023-11-21T03:52:37;100603.41;;;22.11;41.65
57102;BME280;42982;54.558;18.508;2023-11-21T03:53:39;100610.44;;;22.12;41.80
57102;BME280;42982;54.558;18.508;2023-11-21T03:54:43;100598.72;;;22.11;41.68
57102;BME280;42982;54.558;18.508;2023-11-21T03:55:45;100610.44;;;22.12;41.87
57102;BME280;42982;54.558;18.508;2023-11-21T03:56:49;100603.03;;;22.12;41.80
57102;BME280;42982;54.558;18.508;2023-11-21T03:57:51;100604.97;;;22.12;41.79
57102;BME280;42982;54.558;18.508;2023-11-21T03:58:54;100599.50;;;22.12;41.65
57102;BME280;42982;54.558;18.508;2023-11-21T03:59:58;100602.22;;;22.12;41.57
57102;BME280;42982;54.558;18.508;2023-11-21T04:00:59;100604.91;;;22.08;41.59
57102;BME280;42982;54.558;18.508;2023-11-21T04:02:02;100615.94;;;22.12;41.66
57102;BME280;42982;54.558;18.508;2023-11-21T04:03:03;100608.09;;;22.10;41.58
57102;BME280;42982;54.558;18.508;2023-11-21T04:04:05;100609.66;;;22.11;41.51
57102;BME280;42982;54.558;18.508;2023-11-21T04:05:11;100612.41;;;22.11;41.43
57102;BME280;42982;54.558;18.508;2023-11-21T04:06:13;100614.34;;;22.11;41.53
57102;BME280;42982;54.558;18.508;2023-11-21T04:07:17;100612.75;;;22.10;41.70
57102;BME280;42982;54.558;18.508;2023-11-21T04:08:20;100614.34;;;22.11;41.59
57102;BME280;42982;54.558;18.508;2023-11-21T04:09:22;100614.34;;;22.11;41.57
57102;BME280;42982;54.558;18.508;2023-11-21T04:10:26;100619.81;;;22.11;41.68
57102;BME280;42982;54.558;18.508;2023-11-21T04:11:28;100620.94;;;22.10;41.41
57102;BME280;42982;54.558;18.508;2023-11-21T04:12:31;100615.47;;;22.10;41.60
57102;BME280;42982;54.558;18.508;2023-11-21T04:13:33;100619.81;;;22.11;41.59
57102;BME280;42982;54.558;18.508;2023-11-21T04:14:35;100619.81;;;22.11;41.64
57102;BME280;42982;54.558;18.508;2023-11-21T04:15:37;100617.09;;;22.11;41.40
57102;BME280;42982;54.558;18.508;2023-11-21T04:16:38;100619.81;;;22.11;41.50
57102;BME280;42982;54.558;18.508;2023-11-21T04:17:40;100625.31;;;22.11;41.47
57102;BME280;42982;54.558;18.508;2023-11-21T04:18:44;100620.94;;;22.10;41.58
57102;BME280;42982;54.558;18.508;2023-11-21T04:19:46;100617.09;;;22.11;41.53
57102;BME280;42982;54.558;18.508;2023-11-21T04:20:51;100629.16;;;22.10;41.44
57102;BME280;42982;54.558;18.508;2023-11-21T04:21:52;100622.13;;;22.09;41.43
57102;BME280;42982;54.558;18.508;2023-11-21T04:22:54;100634.66;;;22.10;41.42
57102;BME280;42982;54.558;18.508;2023-11-21T04:23:55;100622.91;;;22.09;41.57
57102;BME280;42982;54.558;18.508;2023-11-21T04:24:57;100638.53;;;22.09;41.44
57102;BME280;42982;54.558;18.508;2023-11-21T04:25:58;100631.13;;;22.09;41.65
57102;BME280;42982;54.558;18.508;2023-11-21T04:27:00;100629.16;;;22.10;41.53
57102;BME280;42982;54.558;18.508;2023-11-21T04:28:02;100623.69;;;22.10;41.56
57102;BME280;42982;54.558;18.508;2023-11-21T04:29:03;100619.38;;;22.09;41.42
57102;BME280;42982;54.558;18.508;2023-11-21T04:30:06;100638.53;;;22.09;41.42
57102;BME280;42982;54.558;18.508;2023-11-21T04:31:09;100639.34;;;22.09;41.57
57102;BME280;42982;54.558;18.508;2023-11-21T04:32:11;100637.38;;;22.10;41.50
57102;BME280;42982;54.558;18.508;2023-11-21T04:33:13;100637.38;;;22.10;41.57
57102;BME280;42982;54.558;18.508;2023-11-21T04:34:18;100644.81;;;22.09;41.61
57102;BME280;42982;54.558;18.508;2023-11-21T04:35:19;100629.88;;;22.07;41.67
57102;BME280;42982;54.558;18.508;2023-11-21T04:36:21;100636.59;;;22.09;41.61
57102;BME280;42982;54.558;18.508;2023-11-21T04:37:22;100641.28;;;22.09;41.47
57102;BME280;42982;54.558;18.508;2023-11-21T04:38:25;100642.44;;;22.08;41.46
57102;BME280;42982;54.558;18.508;2023-11-21T04:39:26;100644.81;;;22.09;41.59
57102;BME280;42982;54.558;18.508;2023-11-21T04:40:28;100649.50;;;22.09;41.44
57102;BME280;42982;54.558;18.508;2023-11-21T04:41:32;100650.28;;;22.09;41.57
57102;BME280;42982;54.558;18.508;2023-11-21T04:42:35;100659.28;;;22.10;41.75
57102;BME280;42982;54.558;18.508;2023-11-21T04:43:38;100652.22;;;22.09;41.74
57102;BME280;42982;54.558;18.508;2023-11-21T04:44:40;100653.81;;;22.10;41.76
57102;BME280;42982;54.558;18.508;2023-11-21T04:45:42;100647.53;;;22.09;41.69
57102;BME280;42982;54.558;18.508;2023-11-21T04:46:43;100656.56;;;22.10;41.76
57102;BME280;42982;54.558;18.508;2023-11-21T04:47:45;100656.22;;;22.11;41.71
57102;BME280;42982;54.558;18.508;2023-11-21T04:48:47;100662.84;;;22.10;41.68
57102;BME280;42982;54.558;18.508;2023-11-21T04:49:51;100658.16;;;22.11;41.61
57102;BME280;42982;54.558;18.508;2023-11-21T04:50:53;100663.63;;;22.11;41.75
57102;BME280;42982;54.558;18.508;2023-11-21T04:51:54;100662.47;;;22.12;41.65
57102;BME280;42982;54.558;18.508;2023-11-21T04:52:56;100669.13;;;22.11;41.73
57102;BME280;42982;54.558;18.508;2023-11-21T04:53:58;100665.22;;;22.12;41.64
57102;BME280;42982;54.558;18.508;2023-11-21T04:54:59;100665.22;;;22.12;41.63
57102;BME280;42982;54.558;18.508;2023-11-21T04:56:04;100669.91;;;22.11;41.59
57102;BME280;42982;54.558;18.508;2023-11-21T04:57:06;100667.94;;;22.12;41.53
57102;BME280;42982;54.558;18.508;2023-11-21T04:58:13;100671.84;;;22.11;41.57
57102;BME280;42982;54.558;18.508;2023-11-21T04:59:15;100675.72;;;22.10;41.69
57102;BME280;42982;54.558;18.508;2023-11-21T05:00:17;100674.59;;;22.11;41.63
57102;BME280;42982;54.558;18.508;2023-11-21T05:01:22;100677.31;;;22.11;41.75
57102;BME280;42982;54.558;18.508;2023-11-21T05:02:23;100678.47;;;22.10;41.65
57102;BME280;42982;54.558;18.508;2023-11-21T05:03:24;100672.97;;;22.10;41.44
57102;BME280;42982;54.558;18.508;2023-11-21T05:04:26;100682.00;;;22.10;41.44
57102;BME280;42982;54.558;18.508;2023-11-21T05:05:28;100681.19;;;22.10;41.41
57102;BME280;42982;54.558;18.508;2023-11-21T05:06:33;100694.88;;;22.10;41.51
57102;BME280;42982;54.558;18.508;2023-11-21T05:07:34;100685.09;;;22.09;41.41
57102;BME280;42982;54.558;18.508;2023-11-21T05:08:36;100683.94;;;22.10;41.54
57102;BME280;42982;54.558;18.508;2023-11-21T05:09:41;100686.25;;;22.08;41.50
57102;BME280;42982;54.558;18.508;2023-11-21T05:10:44;100689.41;;;22.10;41.43
57102;BME280;42982;54.558;18.508;2023-11-21T05:11:46;100693.31;;;22.09;41.67
57102;BME280;42982;54.558;18.508;2023-11-21T05:12:48;100696.84;;;22.09;41.52
57102;BME280;42982;54.558;18.508;2023-11-21T05:13:51;100699.56;;;22.09;41.51
57102;BME280;42982;54.558;18.508;2023-11-21T05:14:53;100695.25;;;22.08;41.47
57102;BME280;42982;54.558;18.508;2023-11-21T05:15:55;100700.38;;;22.10;41.52
57102;BME280;42982;54.558;18.508;2023-11-21T05:17:02;100704.25;;;22.09;41.55
57102;BME280;42982;54.558;18.508;2023-11-21T05:18:05;100709.72;;;22.09;41.62
57102;BME280;42982;54.558;18.508;2023-11-21T05:19:07;100710.53;;;22.09;41.54
57102;BME280;42982;54.558;18.508;2023-11-21T05:20:10;100716.00;;;22.09;41.36
57102;BME280;42982;54.558;18.508;2023-11-21T05:21:13;100710.91;;;22.08;41.44
57102;BME280;42982;54.558;18.508;2023-11-21T05:22:15;100717.50;;;22.07;41.46
57102;BME280;42982;54.558;18.508;2023-11-21T05:23:20;100726.53;;;22.07;41.42
57102;BME280;42982;54.558;18.508;2023-11-21T05:24:21;100722.19;;;22.06;41.48
57102;BME280;42982;54.558;18.508;2023-11-21T05:25:25;100729.28;;;22.07;41.37